sensor_id;sensor_type;location;lat;lon;timestamp;temperature;humidity
13616;DHT22;6879;51.368;6.782;2023-07-31T00:01:41;16.50;99.90
13616;DHT22;6879;51.368;6.782;2023-07-31T00:04:10;16.50;99.90
13616;DHT22;6879;51.368;6.782;2023-07-31T00:06:39;16.50;99.90
13616;DHT22;6879;51.368;6.782;2023-07-31T00:09:08;16.50;99.90
13616;DHT22;6879;51.368;6.782;2023-07-31T00:11:37;16.50;99.90
13616;DHT22;6879;51.368;6.782;2023-07-31T00:14:07;16.50;99.90
13616;DHT22;6879;51.368;6.782;2023-07-31T00:16:36;16.50;99.90
13616;DHT22;6879;51.368;6.782;2023-07-31T00:19:05;16.50;99.90
13616;DHT22;6879;51.368;6.782;2023-07-31T00:21:34;16.50;99.90
13616;DHT22;6879;51.368;6.782;2023-07-31T00:24:03;16.50;99.90
13616;DHT22;6879;51.368;6.782;2023-07-31T00:26:32;16.50;99.90
13616;DHT22;6879;51.368;6.782;2023-07-31T00:29:01;16.50;99.90
13616;DHT22;6879;51.368;6.782;2023-07-31T00:31:32;16.50;99.90
13616;DHT22;6879;51.368;6.782;2023-07-31T00:34:00;16.50;99.90
13616;DHT22;6879;51.368;6.782;2023-07-31T00:36:29;16.60;99.90
13616;DHT22;6879;51.368;6.782;2023-07-31T00:39:01;16.60;99.90
13616;DHT22;6879;51.368;6.782;2023-07-31T00:41:30;16.60;99.90
13616;DHT22;6879;51.368;6.782;2023-07-31T00:43:58;16.60;99.90
13616;DHT22;6879;51.368;6.782;2023-07-31T00:46:27;16.60;99.90
13616;DHT22;6879;51.368;6.782;2023-07-31T00:48:58;16.60;99.90
13616;DHT22;6879;51.368;6.782;2023-07-31T00:51:28;16.60;99.90
13616;DHT22;6879;51.368;6.782;2023-07-31T00:53:56;16.60;99.90
13616;DHT22;6879;51.368;6.782;2023-07-31T00:56:27;16.60;99.90
13616;DHT22;6879;51.368;6.782;2023-07-31T00:58:57;16.70;99.90
13616;DHT22;6879;51.368;6.782;2023-07-31T01:01:27;16.70;99.90
13616;DHT22;6879;51.368;6.782;2023-07-31T01:03:57;16.70;99.90
13616;DHT22;6879;51.368;6.782;2023-07-31T01:06:32;16.70;99.90
13616;DHT22;6879;51.368;6.782;2023-07-31T01:09:06;16.70;99.90
13616;DHT22;6879;51.368;6.782;2023-07-31T01:11:43;16.70;99.90
13616;DHT22;6879;51.368;6.782;2023-07-31T01:14:15;16.80;99.90
13616;DHT22;6879;51.368;6.782;2023-07-31T01:16:43;16.80;99.90
13616;DHT22;6879;51.368;6.782;2023-07-31T01:19:14;16.80;99.90
13616;DHT22;6879;51.368;6.782;2023-07-31T01:22:06;16.80;99.90
13616;DHT22;6879;51.368;6.782;2023-07-31T01:24:44;16.80;99.90
13616;DHT22;6879;51.368;6.782;2023-07-31T01:27:23;16.90;99.90
13616;DHT22;6879;51.368;6.782;2023-07-31T01:29:58;16.90;99.90
13616;DHT22;6879;51.368;6.782;2023-07-31T01:32:29;16.80;99.90
13616;DHT22;6879;51.368;6.782;2023-07-31T01:34:58;16.90;99.90
13616;DHT22;6879;51.368;6.782;2023-07-31T01:37:28;16.90;99.90
13616;DHT22;6879;51.368;6.782;2023-07-31T01:39:57;16.90;99.90
13616;DHT22;6879;51.368;6.782;2023-07-31T01:42:28;16.90;99.90
13616;DHT22;6879;51.368;6.782;2023-07-31T01:44:56;16.90;99.90
13616;DHT22;6879;51.368;6.782;2023-07-31T01:47:25;16.90;99.90
13616;DHT22;6879;51.368;6.782;2023-07-31T01:49:54;16.90;99.90
13616;DHT22;6879;51.368;6.782;2023-07-31T01:52:23;16.90;99.90
13616;DHT22;6879;51.368;6.782;2023-07-31T01:54:52;16.90;99.90
13616;DHT22;6879;51.368;6.782;2023-07-31T01:57:21;16.90;99.90
13616;DHT22;6879;51.368;6.782;2023-07-31T01:59:52;16.90;99.90
13616;DHT22;6879;51.368;6.782;2023-07-31T02:02:21;16.90;99.90
13616;DHT22;6879;51.368;6.782;2023-07-31T02:04:51;17.00;99.90
13616;DHT22;6879;51.368;6.782;2023-07-31T02:07:20;17.00;99.90
13616;DHT22;6879;51.368;6.782;2023-07-31T02:09:49;17.00;99.90
13616;DHT22;6879;51.368;6.782;2023-07-31T02:12:19;17.00;99.90
13616;DHT22;6879;51.368;6.782;2023-07-31T02:14:48;17.00;99.90
13616;DHT22;6879;51.368;6.782;2023-07-31T02:17:18;17.00;99.90
13616;DHT22;6879;51.368;6.782;2023-07-31T02:19:48;17.00;99.90
13616;DHT22;6879;51.368;6.782;2023-07-31T02:22:17;17.00;99.90
13616;DHT22;6879;51.368;6.782;2023-07-31T02:24:46;17.00;99.90
13616;DHT22;6879;51.368;6.782;2023-07-31T02:27:15;17.00;99.90
13616;DHT22;6879;51.368;6.782;2023-07-31T02:29:45;17.00;99.90
13616;DHT22;6879;51.368;6.782;2023-07-31T02:32:14;17.00;99.90
13616;DHT22;6879;51.368;6.782;2023-07-31T02:34:45;17.00;99.90
13616;DHT22;6879;51.368;6.782;2023-07-31T02:37:13;17.00;99.90
13616;DHT22;6879;51.368;6.782;2023-07-31T02:39:42;17.00;99.90
13616;DHT22;6879;51.368;6.782;2023-07-31T02:42:12;17.00;99.90
13616;DHT22;6879;51.368;6.782;2023-07-31T02:44:41;17.00;99.90
13616;DHT22;6879;51.368;6.782;2023-07-31T02:47:10;17.00;99.90
13616;DHT22;6879;51.368;6.782;2023-07-31T02:49:39;17.10;99.90
13616;DHT22;6879;51.368;6.782;2023-07-31T02:52:09;17.00;99.90
13616;DHT22;6879;51.368;6.782;2023-07-31T02:54:38;17.10;99.90
13616;DHT22;6879;51.368;6.782;2023-07-31T02:57:06;17.10;99.90
13616;DHT22;6879;51.368;6.782;2023-07-31T02:59:35;17.10;99.90
13616;DHT22;6879;51.368;6.782;2023-07-31T03:02:04;17.10;99.90
13616;DHT22;6879;51.368;6.782;2023-07-31T03:04:33;17.10;99.90
13616;DHT22;6879;51.368;6.782;2023-07-31T03:07:02;17.10;99.90
13616;DHT22;6879;51.368;6.782;2023-07-31T03:09:32;17.10;99.90
13616;DHT22;6879;51.368;6.782;2023-07-31T03:12:01;17.20;99.90
13616;DHT22;6879;51.368;6.782;2023-07-31T03:14:30;17.20;99.90
13616;DHT22;6879;51.368;6.782;2023-07-31T03:17:00;17.20;99.90
13616;DHT22;6879;51.368;6.782;2023-07-31T03:19:30;17.20;99.90
13616;DHT22;6879;51.368;6.782;2023-07-31T03:22:01;17.20;99.90
13616;DHT22;6879;51.368;6.782;2023-07-31T03:24:32;17.30;99.90
13616;DHT22;6879;51.368;6.782;2023-07-31T03:27:01;17.30;99.90
13616;DHT22;6879;51.368;6.782;2023-07-31T03:29:30;17.30;99.90
13616;DHT22;6879;51.368;6.782;2023-07-31T03:31:59;17.30;99.90
13616;DHT22;6879;51.368;6.782;2023-07-31T03:34:29;17.40;99.90
13616;DHT22;6879;51.368;6.782;2023-07-31T03:36:59;17.40;99.90
13616;DHT22;6879;51.368;6.782;2023-07-31T03:39:27;17.40;99.90
13616;DHT22;6879;51.368;6.782;2023-07-31T03:41:58;17.40;99.90
13616;DHT22;6879;51.368;6.782;2023-07-31T03:44:28;17.40;99.90
13616;DHT22;6879;51.368;6.782;2023-07-31T03:46:57;17.50;99.90
13616;DHT22;6879;51.368;6.782;2023-07-31T03:49:26;17.50;99.90
13616;DHT22;6879;51.368;6.782;2023-07-31T03:51:55;17.50;99.90
13616;DHT22;6879;51.368;6.782;2023-07-31T03:54:24;17.50;99.90
13616;DHT22;6879;51.368;6.782;2023-07-31T03:56:53;17.60;99.90
13616;DHT22;6879;51.368;6.782;2023-07-31T03:59:24;17.60;99.90
13616;DHT22;6879;51.368;6.782;2023-07-31T04:01:55;17.60;99.90
13616;DHT22;6879;51.368;6.782;2023-07-31T04:04:24;17.60;99.90
13616;DHT22;6879;51.368;6.782;2023-07-31T04:06:53;17.60;99.90
13616;DHT22;6879;51.368;6.782;2023-07-31T04:09:22;17.60;99.90
13616;DHT22;6879;51.368;6.782;2023-07-31T04:11:51;17.60;99.90
13616;DHT22;6879;51.368;6.782;2023-07-31T04:14:20;17.60;99.90
13616;DHT22;6879;51.368;6.782;2023-07-31T04:16:50;17.70;99.90
13616;DHT22;6879;51.368;6.782;2023-07-31T04:19:19;17.60;99.90
13616;DHT22;6879;51.368;6.782;2023-07-31T04:21:49;17.40;99.90
13616;DHT22;6879;51.368;6.782;2023-07-31T04:24:18;17.30;99.90
13616;DHT22;6879;51.368;6.782;2023-07-31T04:26:52;17.20;99.90
13616;DHT22;6879;51.368;6.782;2023-07-31T04:29:21;17.10;99.90
13616;DHT22;6879;51.368;6.782;2023-07-31T04:31:52;17.10;99.90
13616;DHT22;6879;51.368;6.782;2023-07-31T04:34:21;17.10;99.90
13616;DHT22;6879;51.368;6.782;2023-07-31T04:36:52;17.10;99.90
13616;DHT22;6879;51.368;6.782;2023-07-31T04:39:21;17.10;99.90
13616;DHT22;6879;51.368;6.782;2023-07-31T04:41:50;17.10;99.90
13616;DHT22;6879;51.368;6.782;2023-07-31T04:44:18;17.20;99.90
13616;DHT22;6879;51.368;6.782;2023-07-31T04:46:47;17.20;99.90
13616;DHT22;6879;51.368;6.782;2023-07-31T04:49:20;17.20;99.90
13616;DHT22;6879;51.368;6.782;2023-07-31T04:51:51;17.30;99.90
13616;DHT22;6879;51.368;6.782;2023-07-31T04:54:21;17.30;99.90
13616;DHT22;6879;51.368;6.782;2023-07-31T04:56:53;17.30;99.90
13616;DHT22;6879;51.368;6.782;2023-07-31T04:59:22;17.40;99.90
13616;DHT22;6879;51.368;6.782;2023-07-31T05:01:51;17.40;99.90
13616;DHT22;6879;51.368;6.782;2023-07-31T05:04:22;17.50;99.90
13616;DHT22;6879;51.368;6.782;2023-07-31T05:06:50;17.60;99.90
13616;DHT22;6879;51.368;6.782;2023-07-31T05:09:19;17.70;99.90
13616;DHT22;6879;51.368;6.782;2023-07-31T05:11:48;17.70;99.90
13616;DHT22;6879;51.368;6.782;2023-07-31T05:14:17;17.70;99.90
13616;DHT22;6879;51.368;6.782;2023-07-31T05:16:47;17.80;99.90
13616;DHT22;6879;51.368;6.782;2023-07-31T05:19:16;17.80;99.90
13616;DHT22;6879;51.368;6.782;2023-07-31T05:21:47;17.80;99.90
13616;DHT22;6879;51.368;6.782;2023-07-31T05:24:16;17.80;99.90
13616;DHT22;6879;51.368;6.782;2023-07-31T05:26:44;17.70;99.90
13616;DHT22;6879;51.368;6.782;2023-07-31T05:29:15;17.60;99.90
13616;DHT22;6879;51.368;6.782;2023-07-31T05:31:44;17.40;99.90
13616;DHT22;6879;51.368;6.782;2023-07-31T05:34:13;17.40;99.90
13616;DHT22;6879;51.368;6.782;2023-07-31T05:36:42;17.40;99.90
13616;DHT22;6879;51.368;6.782;2023-07-31T05:39:13;17.40;99.90
13616;DHT22;6879;51.368;6.782;2023-07-31T05:41:42;17.50;99.90
13616;DHT22;6879;51.368;6.782;2023-07-31T05:44:11;17.60;99.90
13616;DHT22;6879;51.368;6.782;2023-07-31T05:46:40;17.70;99.90
13616;DHT22;6879;51.368;6.782;2023-07-31T05:49:09;17.80;99.90
13616;DHT22;6879;51.368;6.782;2023-07-31T05:51:38;17.80;99.90
13616;DHT22;6879;51.368;6.782;2023-07-31T05:54:07;17.90;99.90
13616;DHT22;6879;51.368;6.782;2023-07-31T05:56:38;17.90;99.90
13616;DHT22;6879;51.368;6.782;2023-07-31T05:59:08;18.00;99.90
13616;DHT22;6879;51.368;6.782;2023-07-31T06:01:38;18.00;99.90
13616;DHT22;6879;51.368;6.782;2023-07-31T06:04:07;18.00;99.90
13616;DHT22;6879;51.368;6.782;2023-07-31T06:06:36;18.10;99.90
13616;DHT22;6879;51.368;6.782;2023-07-31T06:09:05;18.10;99.90
13616;DHT22;6879;51.368;6.782;2023-07-31T06:11:38;18.10;99.90
13616;DHT22;6879;51.368;6.782;2023-07-31T06:14:07;18.00;99.90
13616;DHT22;6879;51.368;6.782;2023-07-31T06:16:36;17.90;99.90
13616;DHT22;6879;51.368;6.782;2023-07-31T06:19:05;17.80;99.90
13616;DHT22;6879;51.368;6.782;2023-07-31T06:21:34;17.60;99.90
13616;DHT22;6879;51.368;6.782;2023-07-31T06:24:05;17.50;99.90
13616;DHT22;6879;51.368;6.782;2023-07-31T06:26:34;17.40;99.90
13616;DHT22;6879;51.368;6.782;2023-07-31T06:29:07;17.30;99.90
13616;DHT22;6879;51.368;6.782;2023-07-31T06:31:36;17.20;99.90
13616;DHT22;6879;51.368;6.782;2023-07-31T06:34:05;17.20;99.90
13616;DHT22;6879;51.368;6.782;2023-07-31T06:36:34;17.20;99.90
13616;DHT22;6879;51.368;6.782;2023-07-31T06:39:04;17.10;99.90
13616;DHT22;6879;51.368;6.782;2023-07-31T06:41:34;17.10;99.90
13616;DHT22;6879;51.368;6.782;2023-07-31T06:44:07;17.10;99.90
13616;DHT22;6879;51.368;6.782;2023-07-31T06:46:36;17.10;99.90
13616;DHT22;6879;51.368;6.782;2023-07-31T06:49:05;17.10;99.90
13616;DHT22;6879;51.368;6.782;2023-07-31T06:51:35;17.10;99.90
13616;DHT22;6879;51.368;6.782;2023-07-31T06:54:05;17.10;99.90
13616;DHT22;6879;51.368;6.782;2023-07-31T06:56:34;17.10;99.90
13616;DHT22;6879;51.368;6.782;2023-07-31T06:59:08;17.20;99.90
13616;DHT22;6879;51.368;6.782;2023-07-31T07:01:37;17.20;99.90
13616;DHT22;6879;51.368;6.782;2023-07-31T07:04:07;17.20;99.90
13616;DHT22;6879;51.368;6.782;2023-07-31T07:06:36;17.20;99.90
13616;DHT22;6879;51.368;6.782;2023-07-31T07:09:05;17.20;99.90
13616;DHT22;6879;51.368;6.782;2023-07-31T07:11:35;17.20;99.90
13616;DHT22;6879;51.368;6.782;2023-07-31T07:14:04;17.20;99.90
13616;DHT22;6879;51.368;6.782;2023-07-31T07:16:35;17.10;99.90
13616;DHT22;6879;51.368;6.782;2023-07-31T07:19:05;17.10;99.90
13616;DHT22;6879;51.368;6.782;2023-07-31T07:21:34;17.00;99.90
13616;DHT22;6879;51.368;6.782;2023-07-31T07:24:04;17.00;99.90
13616;DHT22;6879;51.368;6.782;2023-07-31T07:26:35;17.00;99.90
13616;DHT22;6879;51.368;6.782;2023-07-31T07:29:05;17.00;99.90
13616;DHT22;6879;51.368;6.782;2023-07-31T07:31:36;17.00;99.90
13616;DHT22;6879;51.368;6.782;2023-07-31T07:34:05;16.90;99.90
13616;DHT22;6879;51.368;6.782;2023-07-31T07:36:34;16.90;99.90
13616;DHT22;6879;51.368;6.782;2023-07-31T07:39:05;16.90;99.90
13616;DHT22;6879;51.368;6.782;2023-07-31T07:41:33;17.00;99.90
13616;DHT22;6879;51.368;6.782;2023-07-31T07:44:02;17.00;99.90
13616;DHT22;6879;51.368;6.782;2023-07-31T07:46:32;17.00;99.90
13616;DHT22;6879;51.368;6.782;2023-07-31T07:49:03;17.00;99.90
13616;DHT22;6879;51.368;6.782;2023-07-31T07:51:32;16.90;99.90
13616;DHT22;6879;51.368;6.782;2023-07-31T07:54:01;16.90;99.90
13616;DHT22;6879;51.368;6.782;2023-07-31T07:56:30;16.90;99.90
13616;DHT22;6879;51.368;6.782;2023-07-31T07:58:59;16.90;99.90
13616;DHT22;6879;51.368;6.782;2023-07-31T08:01:27;17.00;99.90
13616;DHT22;6879;51.368;6.782;2023-07-31T08:03:57;17.00;99.90
13616;DHT22;6879;51.368;6.782;2023-07-31T08:06:28;17.00;99.90
13616;DHT22;6879;51.368;6.782;2023-07-31T08:08:59;17.10;99.90
13616;DHT22;6879;51.368;6.782;2023-07-31T08:11:34;17.10;99.90
13616;DHT22;6879;51.368;6.782;2023-07-31T08:14:03;17.10;99.90
13616;DHT22;6879;51.368;6.782;2023-07-31T08:16:32;17.10;99.90
13616;DHT22;6879;51.368;6.782;2023-07-31T08:19:01;17.20;99.90
13616;DHT22;6879;51.368;6.782;2023-07-31T08:21:32;17.20;99.90
13616;DHT22;6879;51.368;6.782;2023-07-31T08:24:01;17.10;99.90
13616;DHT22;6879;51.368;6.782;2023-07-31T08:26:30;17.10;99.90
13616;DHT22;6879;51.368;6.782;2023-07-31T08:28:59;17.00;99.90
13616;DHT22;6879;51.368;6.782;2023-07-31T08:31:28;17.00;99.90
13616;DHT22;6879;51.368;6.782;2023-07-31T08:33:58;17.10;99.90
13616;DHT22;6879;51.368;6.782;2023-07-31T08:36:27;17.10;99.90
13616;DHT22;6879;51.368;6.782;2023-07-31T08:38:58;17.10;99.90
13616;DHT22;6879;51.368;6.782;2023-07-31T08:41:27;17.10;99.90
13616;DHT22;6879;51.368;6.782;2023-07-31T08:43:57;17.10;99.90
13616;DHT22;6879;51.368;6.782;2023-07-31T08:46:27;17.10;99.90
13616;DHT22;6879;51.368;6.782;2023-07-31T08:48:57;17.10;99.90
13616;DHT22;6879;51.368;6.782;2023-07-31T08:51:27;17.10;99.90
13616;DHT22;6879;51.368;6.782;2023-07-31T08:53:58;17.20;99.90
13616;DHT22;6879;51.368;6.782;2023-07-31T08:56:27;17.30;99.90
13616;DHT22;6879;51.368;6.782;2023-07-31T08:58:58;17.30;99.90
13616;DHT22;6879;51.368;6.782;2023-07-31T09:01:30;17.30;99.90
13616;DHT22;6879;51.368;6.782;2023-07-31T09:04:01;17.20;99.90
13616;DHT22;6879;51.368;6.782;2023-07-31T09:06:32;17.20;99.90
13616;DHT22;6879;51.368;6.782;2023-07-31T09:09:05;17.20;99.90
13616;DHT22;6879;51.368;6.782;2023-07-31T09:11:35;17.20;99.90
13616;DHT22;6879;51.368;6.782;2023-07-31T09:14:05;17.10;99.90
13616;DHT22;6879;51.368;6.782;2023-07-31T09:16:36;17.20;99.90
13616;DHT22;6879;51.368;6.782;2023-07-31T09:19:38;17.10;99.90
13616;DHT22;6879;51.368;6.782;2023-07-31T09:22:08;17.10;99.90
13616;DHT22;6879;51.368;6.782;2023-07-31T09:24:39;17.10;99.90
13616;DHT22;6879;51.368;6.782;2023-07-31T09:27:14;17.10;99.90
13616;DHT22;6879;51.368;6.782;2023-07-31T09:29:43;17.10;99.90
13616;DHT22;6879;51.368;6.782;2023-07-31T09:32:16;17.20;99.90
13616;DHT22;6879;51.368;6.782;2023-07-31T09:34:45;17.10;99.90
13616;DHT22;6879;51.368;6.782;2023-07-31T09:37:14;17.20;99.90
13616;DHT22;6879;51.368;6.782;2023-07-31T09:39:49;17.20;99.90
13616;DHT22;6879;51.368;6.782;2023-07-31T09:42:26;17.20;99.90
13616;DHT22;6879;51.368;6.782;2023-07-31T09:45:07;17.20;99.90
13616;DHT22;6879;51.368;6.782;2023-07-31T09:47:37;17.30;99.90
13616;DHT22;6879;51.368;6.782;2023-07-31T09:50:08;17.40;99.90
13616;DHT22;6879;51.368;6.782;2023-07-31T09:52:40;17.40;99.90
13616;DHT22;6879;51.368;6.782;2023-07-31T09:55:13;17.40;99.90
13616;DHT22;6879;51.368;6.782;2023-07-31T09:57:44;17.40;99.90
13616;DHT22;6879;51.368;6.782;2023-07-31T10:00:14;17.40;99.90
13616;DHT22;6879;51.368;6.782;2023-07-31T10:02:46;17.50;99.90
13616;DHT22;6879;51.368;6.782;2023-07-31T10:05:21;17.50;99.90
13616;DHT22;6879;51.368;6.782;2023-07-31T10:07:53;17.40;99.90
13616;DHT22;6879;51.368;6.782;2023-07-31T10:10:25;17.40;99.90
13616;DHT22;6879;51.368;6.782;2023-07-31T10:12:56;17.40;99.90
13616;DHT22;6879;51.368;6.782;2023-07-31T10:15:25;17.40;99.90
13616;DHT22;6879;51.368;6.782;2023-07-31T10:17:55;17.40;99.90
13616;DHT22;6879;51.368;6.782;2023-07-31T10:20:24;17.40;99.90
13616;DHT22;6879;51.368;6.782;2023-07-31T10:22:56;17.40;99.90
13616;DHT22;6879;51.368;6.782;2023-07-31T10:25:29;17.40;99.90
13616;DHT22;6879;51.368;6.782;2023-07-31T10:27:58;17.40;99.90
13616;DHT22;6879;51.368;6.782;2023-07-31T10:30:30;17.50;99.90
13616;DHT22;6879;51.368;6.782;2023-07-31T10:33:01;17.50;99.90
13616;DHT22;6879;51.368;6.782;2023-07-31T10:35:34;17.50;99.90
13616;DHT22;6879;51.368;6.782;2023-07-31T10:38:12;17.50;99.90
13616;DHT22;6879;51.368;6.782;2023-07-31T10:40:45;17.60;99.90
13616;DHT22;6879;51.368;6.782;2023-07-31T10:43:24;17.70;99.90
13616;DHT22;6879;51.368;6.782;2023-07-31T10:45:54;17.80;99.90
13616;DHT22;6879;51.368;6.782;2023-07-31T10:48:23;17.90;99.90
13616;DHT22;6879;51.368;6.782;2023-07-31T10:50:54;18.20;99.90
13616;DHT22;6879;51.368;6.782;2023-07-31T10:53:28;18.40;99.90
13616;DHT22;6879;51.368;6.782;2023-07-31T10:56:00;18.50;99.90
13616;DHT22;6879;51.368;6.782;2023-07-31T10:58:29;18.60;99.90
13616;DHT22;6879;51.368;6.782;2023-07-31T11:01:01;18.70;99.90
13616;DHT22;6879;51.368;6.782;2023-07-31T11:03:45;18.70;99.90
13616;DHT22;6879;51.368;6.782;2023-07-31T11:06:16;18.70;99.90
13616;DHT22;6879;51.368;6.782;2023-07-31T11:08:47;18.60;99.90
13616;DHT22;6879;51.368;6.782;2023-07-31T11:11:19;18.70;99.90
13616;DHT22;6879;51.368;6.782;2023-07-31T11:13:49;18.80;99.90
13616;DHT22;6879;51.368;6.782;2023-07-31T11:16:20;18.80;99.90
13616;DHT22;6879;51.368;6.782;2023-07-31T11:18:52;18.90;99.90
13616;DHT22;6879;51.368;6.782;2023-07-31T11:21:24;18.90;99.90
13616;DHT22;6879;51.368;6.782;2023-07-31T11:23:56;18.90;99.90
13616;DHT22;6879;51.368;6.782;2023-07-31T11:26:27;19.00;99.90
13616;DHT22;6879;51.368;6.782;2023-07-31T11:28:58;19.10;99.90
13616;DHT22;6879;51.368;6.782;2023-07-31T11:31:27;19.30;99.90
13616;DHT22;6879;51.368;6.782;2023-07-31T11:34:04;19.30;99.90
13616;DHT22;6879;51.368;6.782;2023-07-31T11:36:34;19.20;99.90
13616;DHT22;6879;51.368;6.782;2023-07-31T11:39:05;19.10;99.90
13616;DHT22;6879;51.368;6.782;2023-07-31T11:41:36;19.10;99.90
13616;DHT22;6879;51.368;6.782;2023-07-31T11:44:05;19.20;99.90
13616;DHT22;6879;51.368;6.782;2023-07-31T11:46:52;19.20;99.90
13616;DHT22;6879;51.368;6.782;2023-07-31T11:49:21;19.10;99.90
13616;DHT22;6879;51.368;6.782;2023-07-31T11:51:52;19.10;99.90
13616;DHT22;6879;51.368;6.782;2023-07-31T11:54:21;19.00;99.90
13616;DHT22;6879;51.368;6.782;2023-07-31T11:56:52;18.80;99.90
13616;DHT22;6879;51.368;6.782;2023-07-31T11:59:22;18.80;99.90
13616;DHT22;6879;51.368;6.782;2023-07-31T12:01:51;18.80;99.90
13616;DHT22;6879;51.368;6.782;2023-07-31T12:04:21;18.80;99.90
13616;DHT22;6879;51.368;6.782;2023-07-31T12:06:53;18.80;99.90
13616;DHT22;6879;51.368;6.782;2023-07-31T12:09:25;18.80;99.90
13616;DHT22;6879;51.368;6.782;2023-07-31T12:11:56;18.90;99.90
13616;DHT22;6879;51.368;6.782;2023-07-31T12:14:27;18.90;99.90
13616;DHT22;6879;51.368;6.782;2023-07-31T12:16:58;18.90;99.90
13616;DHT22;6879;51.368;6.782;2023-07-31T12:19:27;18.90;99.90
13616;DHT22;6879;51.368;6.782;2023-07-31T12:21:59;19.00;99.90
13616;DHT22;6879;51.368;6.782;2023-07-31T12:24:28;19.10;99.90
13616;DHT22;6879;51.368;6.782;2023-07-31T12:26:59;19.10;99.90
13616;DHT22;6879;51.368;6.782;2023-07-31T12:29:34;19.10;99.90
13616;DHT22;6879;51.368;6.782;2023-07-31T12:32:21;19.10;99.90
13616;DHT22;6879;51.368;6.782;2023-07-31T12:34:51;19.10;99.90
13616;DHT22;6879;51.368;6.782;2023-07-31T12:37:20;19.10;99.90
13616;DHT22;6879;51.368;6.782;2023-07-31T12:39:49;19.20;99.90
13616;DHT22;6879;51.368;6.782;2023-07-31T12:42:20;19.20;99.90
13616;DHT22;6879;51.368;6.782;2023-07-31T12:44:49;19.00;99.90
13616;DHT22;6879;51.368;6.782;2023-07-31T12:47:21;18.80;99.90
13616;DHT22;6879;51.368;6.782;2023-07-31T12:49:50;18.80;99.90
13616;DHT22;6879;51.368;6.782;2023-07-31T12:52:20;18.80;99.90
13616;DHT22;6879;51.368;6.782;2023-07-31T12:54:49;18.90;99.90
13616;DHT22;6879;51.368;6.782;2023-07-31T12:57:19;19.00;99.90
13616;DHT22;6879;51.368;6.782;2023-07-31T12:59:50;19.00;99.90
13616;DHT22;6879;51.368;6.782;2023-07-31T13:02:22;19.00;99.90
13616;DHT22;6879;51.368;6.782;2023-07-31T13:04:52;19.00;99.90
13616;DHT22;6879;51.368;6.782;2023-07-31T13:07:23;19.00;99.90
13616;DHT22;6879;51.368;6.782;2023-07-31T13:09:53;19.00;99.90
13616;DHT22;6879;51.368;6.782;2023-07-31T13:12:26;19.10;99.90
13616;DHT22;6879;51.368;6.782;2023-07-31T13:14:56;19.20;99.90
13616;DHT22;6879;51.368;6.782;2023-07-31T13:17:25;19.30;99.90
13616;DHT22;6879;51.368;6.782;2023-07-31T13:19:55;19.30;99.90
13616;DHT22;6879;51.368;6.782;2023-07-31T13:22:24;19.40;99.90
13616;DHT22;6879;51.368;6.782;2023-07-31T13:24:52;19.50;99.90
13616;DHT22;6879;51.368;6.782;2023-07-31T13:27:23;19.70;99.90
13616;DHT22;6879;51.368;6.782;2023-07-31T13:29:52;19.60;99.90
13616;DHT22;6879;51.368;6.782;2023-07-31T13:32:21;19.50;99.90
13616;DHT22;6879;51.368;6.782;2023-07-31T13:34:50;19.70;99.90
13616;DHT22;6879;51.368;6.782;2023-07-31T13:37:18;19.90;99.90
13616;DHT22;6879;51.368;6.782;2023-07-31T13:39:47;20.00;99.90
13616;DHT22;6879;51.368;6.782;2023-07-31T13:42:16;19.90;99.90
13616;DHT22;6879;51.368;6.782;2023-07-31T13:44:47;20.00;99.90
13616;DHT22;6879;51.368;6.782;2023-07-31T13:47:15;20.00;99.90
13616;DHT22;6879;51.368;6.782;2023-07-31T13:49:44;20.10;99.90
13616;DHT22;6879;51.368;6.782;2023-07-31T13:52:13;20.20;99.90
13616;DHT22;6879;51.368;6.782;2023-07-31T13:54:42;20.30;99.90
13616;DHT22;6879;51.368;6.782;2023-07-31T13:57:11;20.40;99.90
13616;DHT22;6879;51.368;6.782;2023-07-31T13:59:39;20.50;99.90
13616;DHT22;6879;51.368;6.782;2023-07-31T14:02:10;20.50;99.90
13616;DHT22;6879;51.368;6.782;2023-07-31T14:04:38;20.60;99.90
13616;DHT22;6879;51.368;6.782;2023-07-31T14:07:07;20.60;99.90
13616;DHT22;6879;51.368;6.782;2023-07-31T14:09:36;20.50;99.90
13616;DHT22;6879;51.368;6.782;2023-07-31T14:12:05;20.50;99.90
13616;DHT22;6879;51.368;6.782;2023-07-31T14:14:34;20.40;99.90
13616;DHT22;6879;51.368;6.782;2023-07-31T14:17:04;20.30;99.90
13616;DHT22;6879;51.368;6.782;2023-07-31T14:19:34;20.20;99.90
13616;DHT22;6879;51.368;6.782;2023-07-31T14:22:04;20.10;99.90
13616;DHT22;6879;51.368;6.782;2023-07-31T14:24:37;20.10;99.90
13616;DHT22;6879;51.368;6.782;2023-07-31T14:27:07;20.00;99.90
13616;DHT22;6879;51.368;6.782;2023-07-31T14:29:37;20.00;99.90
13616;DHT22;6879;51.368;6.782;2023-07-31T14:32:07;19.90;99.90
13616;DHT22;6879;51.368;6.782;2023-07-31T14:34:37;19.90;99.90
13616;DHT22;6879;51.368;6.782;2023-07-31T14:37:06;19.90;99.90
13616;DHT22;6879;51.368;6.782;2023-07-31T14:39:34;19.80;99.90
13616;DHT22;6879;51.368;6.782;2023-07-31T14:42:07;19.70;99.90
13616;DHT22;6879;51.368;6.782;2023-07-31T14:44:36;19.50;99.90
13616;DHT22;6879;51.368;6.782;2023-07-31T14:47:05;19.30;99.90
13616;DHT22;6879;51.368;6.782;2023-07-31T14:49:34;19.20;99.90
13616;DHT22;6879;51.368;6.782;2023-07-31T14:52:04;19.10;99.90
13616;DHT22;6879;51.368;6.782;2023-07-31T14:54:34;19.10;99.90
13616;DHT22;6879;51.368;6.782;2023-07-31T14:57:04;19.10;99.90
13616;DHT22;6879;51.368;6.782;2023-07-31T14:59:32;19.10;99.90
13616;DHT22;6879;51.368;6.782;2023-07-31T15:02:02;19.20;99.90
13616;DHT22;6879;51.368;6.782;2023-07-31T15:04:31;19.30;99.90
13616;DHT22;6879;51.368;6.782;2023-07-31T15:06:59;19.40;99.90
13616;DHT22;6879;51.368;6.782;2023-07-31T15:09:30;19.60;99.90
13616;DHT22;6879;51.368;6.782;2023-07-31T15:11:59;19.60;99.90
13616;DHT22;6879;51.368;6.782;2023-07-31T15:14:28;19.70;99.90
13616;DHT22;6879;51.368;6.782;2023-07-31T15:16:58;19.80;99.90
13616;DHT22;6879;51.368;6.782;2023-07-31T15:19:28;19.90;99.90
13616;DHT22;6879;51.368;6.782;2023-07-31T15:21:57;19.90;99.90
13616;DHT22;6879;51.368;6.782;2023-07-31T15:24:26;20.00;99.90
13616;DHT22;6879;51.368;6.782;2023-07-31T15:26:56;20.00;99.90
13616;DHT22;6879;51.368;6.782;2023-07-31T15:29:25;20.00;99.90
13616;DHT22;6879;51.368;6.782;2023-07-31T15:31:54;20.00;99.90
13616;DHT22;6879;51.368;6.782;2023-07-31T15:34:23;20.10;99.90
13616;DHT22;6879;51.368;6.782;2023-07-31T15:36:52;20.10;99.90
13616;DHT22;6879;51.368;6.782;2023-07-31T15:39:21;20.10;99.90
13616;DHT22;6879;51.368;6.782;2023-07-31T15:41:50;20.10;99.90
13616;DHT22;6879;51.368;6.782;2023-07-31T15:44:21;20.10;99.90
13616;DHT22;6879;51.368;6.782;2023-07-31T15:46:50;20.20;99.90
13616;DHT22;6879;51.368;6.782;2023-07-31T15:49:18;20.10;99.90
13616;DHT22;6879;51.368;6.782;2023-07-31T15:51:47;19.80;99.90
13616;DHT22;6879;51.368;6.782;2023-07-31T15:54:16;19.40;99.90
13616;DHT22;6879;51.368;6.782;2023-07-31T15:56:48;19.00;99.90
13616;DHT22;6879;51.368;6.782;2023-07-31T15:59:17;18.70;99.90
13616;DHT22;6879;51.368;6.782;2023-07-31T16:01:48;18.40;99.90
13616;DHT22;6879;51.368;6.782;2023-07-31T16:04:18;18.30;99.90